Time;durP1;ratioP1;P1;durP2;ratioP2;P2;SDS_P1;SDS_P2;PMS_P1;PMS_P2;Temp;Humidity;BMP_temperature;BMP_pressure;BME280_temperature;BME280_humidity;BME280_pressure;Samples;Min_cycle;Max_cycle;Signal;HPM_P1;HPM_P2
2022/07/30 00:01:56;;;;;;;3.13;2.80;;;;;;;23.15;46.78;93542.94;5070344;28;20024;-50
2022/07/30 00:04:23;;;;;;;5.82;3.78;;;;;;;23.11;47.18;93539.94;5069767;28;20560;-52
2022/07/30 00:06:48;;;;;;;4.03;3.53;;;;;;;23.06;47.95;93534.75;5068905;28;20031;-46
2022/07/30 00:09:14;;;;;;;3.88;3.50;;;;;;;23.01;47.97;93528.19;5069106;28;20119;-49
2022/07/30 00:11:39;;;;;;;6.28;3.60;;;;;;;22.99;48.52;93541.41;5069618;28;20056;-47
2022/07/30 00:14:05;;;;;;;3.65;3.15;;;;;;;22.91;48.77;93538.22;5069610;28;20027;-48
2022/07/30 00:16:30;;;;;;;3.65;3.33;;;;;;;22.80;49.51;93534.16;5069335;28;20091;-50
2022/07/30 00:18:56;;;;;;;4.70;3.88;;;;;;;22.81;49.74;93532.06;5066498;28;20036;-49
2022/07/30 00:21:21;;;;;;;5.88;3.90;;;;;;;22.78;51.12;93531.25;5068657;28;20035;-48
2022/07/30 00:23:47;;;;;;;7.60;4.13;;;;;;;22.63;50.90;93531.16;5067584;28;20521;-47
2022/07/30 00:26:12;;;;;;;5.45;3.70;;;;;;;22.56;50.84;93528.03;5069629;28;20028;-49
2022/07/30 00:28:37;;;;;;;4.45;3.67;;;;;;;22.51;50.93;93520.72;5065673;28;20035;-48
2022/07/30 00:31:03;;;;;;;4.32;3.60;;;;;;;22.43;52.07;93517.50;5047453;28;20041;-48
2022/07/30 00:33:28;;;;;;;4.40;3.47;;;;;;;22.12;52.50;93510.91;5067727;28;20553;-49
2022/07/30 00:35:54;;;;;;;3.85;3.45;;;;;;;21.96;53.13;93521.31;5067723;28;20032;-48
2022/07/30 00:38:19;;;;;;;3.97;3.65;;;;;;;21.84;53.37;93512.97;5069385;28;20028;-48
2022/07/30 00:40:48;;;;;;;5.07;4.15;;;;;;;21.88;53.81;93513.19;5069211;28;20024;-47
2022/07/30 00:43:17;;;;;;;6.15;3.60;;;;;;;21.79;53.50;93514.06;5069658;28;20490;-47
2022/07/30 00:45:43;;;;;;;4.63;4.22;;;;;;;21.76;53.66;93515.31;5068874;28;20498;-52
2022/07/30 00:48:10;;;;;;;6.35;3.92;;;;;;;21.62;54.85;93520.91;5069371;28;20040;-50
2022/07/30 00:50:36;;;;;;;5.20;4.50;;;;;;;21.43;54.98;93507.22;5066488;28;20024;-50
2022/07/30 00:53:01;;;;;;;4.97;4.28;;;;;;;21.55;55.02;93507.16;5069579;28;20035;-50
2022/07/30 00:55:27;;;;;;;5.07;3.55;;;;;;;21.44;55.05;93511.47;5069499;28;20068;-47
2022/07/30 00:57:53;;;;;;;4.40;3.83;;;;;;;21.24;55.29;93515.25;5067088;28;20089;-47
2022/07/30 01:00:18;;;;;;;8.15;4.13;;;;;;;21.36;55.33;93510.28;5070796;28;20482;-46
2022/07/30 01:02:44;;;;;;;5.30;4.40;;;;;;;21.08;56.15;93501.03;5072469;28;20032;-45
2022/07/30 01:05:10;;;;;;;5.55;3.95;;;;;;;21.21;55.79;93508.06;5072091;28;20024;-45
2022/07/30 01:07:36;;;;;;;6.10;3.90;;;;;;;21.13;56.04;93506.28;5072168;28;20494;-47
2022/07/30 01:10:02;;;;;;;6.63;4.10;;;;;;;20.98;56.62;93514.50;5073801;28;20508;-48
2022/07/30 01:12:28;;;;;;;3.95;3.50;;;;;;;20.73;56.83;93495.53;5074028;28;20028;-47
2022/07/30 01:14:57;;;;;;;3.97;3.58;;;;;;;21.05;56.64;93513.53;5056294;28;20020;-46
2022/07/30 01:17:23;;;;;;;4.95;4.00;;;;;;;21.10;56.68;93518.00;5055890;28;20511;-46
2022/07/30 01:19:54;;;;;;;6.05;4.13;;;;;;;20.89;57.24;93509.75;5073559;28;20024;-47
2022/07/30 01:22:29;;;;;;;6.95;4.20;;;;;;;20.89;57.80;93518.91;5056249;28;20032;-46
2022/07/30 01:25:01;;;;;;;5.15;4.32;;;;;;;20.69;58.37;93517.00;5072770;28;20416;-46
2022/07/30 01:27:29;;;;;;;7.13;5.00;;;;;;;20.83;57.13;93520.66;5055722;28;20119;-45
2022/07/30 01:29:55;;;;;;;5.35;4.57;;;;;;;20.63;58.13;93519.47;5055245;28;20028;-46
2022/07/30 01:32:22;;;;;;;6.07;4.20;;;;;;;20.72;57.44;93518.59;5073227;28;20075;-44
2022/07/30 01:34:49;;;;;;;6.70;4.70;;;;;;;20.55;58.32;93524.63;5055134;28;20520;-44
2022/07/30 01:37:16;;;;;;;5.20;4.70;;;;;;;20.55;58.84;93519.75;5055508;28;20058;-43
2022/07/30 01:39:42;;;;;;;5.85;4.85;;;;;;;20.48;58.54;93515.13;5072676;28;20028;-44
2022/07/30 01:42:08;;;;;;;5.82;5.20;;;;;;;20.24;59.46;93520.03;5055111;28;20086;-42
2022/07/30 01:44:35;;;;;;;5.63;5.13;;;;;;;20.11;59.99;93494.66;5072859;28;20048;-46
2022/07/30 01:47:01;;;;;;;13.02;4.80;;;;;;;20.18;60.13;93511.22;5072667;28;20413;-43
2022/07/30 01:49:28;;;;;;;5.90;4.43;;;;;;;20.26;59.45;93511.75;5053980;28;20047;-43
2022/07/30 01:51:54;;;;;;;5.60;5.10;;;;;;;20.20;59.88;93514.19;5053404;28;20028;-44
2022/07/30 01:54:20;;;;;;;6.45;5.10;;;;;;;20.09;60.25;93514.91;5065813;28;20028;-45
2022/07/30 01:56:48;;;;;;;6.57;4.75;;;;;;;20.04;60.97;93515.25;5069505;28;20032;-44
2022/07/30 01:59:18;;;;;;;7.60;4.80;;;;;;;19.93;60.79;93513.19;5055057;28;20429;-47
2022/07/30 02:01:43;;;;;;;;;;;;;;;19.94;61.13;93512.59;5054201;28;20082;-47
2022/07/30 02:04:08;;;;;;;5.87;5.27;;;;;;;19.86;61.50;93502.97;5071421;28;20034;-43
2022/07/30 02:06:41;;;;;;;5.25;4.35;;;;;;;19.85;61.35;93507.84;5049562;28;20450;-45
2022/07/30 02:09:07;;;;;;;7.00;5.20;;;;;;;19.77;61.55;93515.00;5070136;28;20024;-45
2022/07/30 02:14:28;;;;;;;5.97;4.88;;;;;;;19.55;62.29;93509.50;5068328;28;20039;-44
2022/07/30 02:16:57;;;;;;;5.93;5.20;;;;;;;19.53;62.28;93503.75;5054903;28;20120;-43
2022/07/30 02:19:25;;;;;;;6.82;5.60;;;;;;;19.58;62.50;93501.94;5072432;28;20103;-43
2022/07/30 02:22:04;;;;;;;6.90;4.93;;;;;;;19.47;62.99;93497.78;5054585;28;20107;-43
2022/07/30 02:24:30;;;;;;;5.47;4.97;;;;;;;19.32;63.18;93501.03;5072604;28;20032;-46
2022/07/30 02:27:06;;;;;;;6.90;5.57;;;;;;;19.47;63.52;93499.84;5054674;28;20083;-45
2022/07/30 02:29:33;;;;;;;7.65;5.63;;;;;;;19.45;63.13;93505.34;5072409;28;20508;-47
2022/07/30 02:32:00;;;;;;;9.50;5.50;;;;;;;19.37;63.67;93504.84;5059485;28;20038;-44
2022/07/30 02:34:27;;;;;;;6.90;5.53;;;;;;;19.21;64.19;93498.94;5054467;28;20092;-43
2022/07/30 02:36:53;;;;;;;6.38;5.20;;;;;;;19.29;63.94;93493.84;5070376;28;20028;-45
2022/07/30 02:39:20;;;;;;;6.63;5.50;;;;;;;19.25;63.73;93492.88;5053449;28;20538;-45
2022/07/30 02:41:47;;;;;;;7.22;5.40;;;;;;;19.19;64.44;93490.41;5054188;28;20027;-45
2022/07/30 02:44:18;;;;;;;10.00;5.07;;;;;;;19.17;64.48;93498.69;5053412;28;20170;-46
2022/07/30 02:46:44;;;;;;;8.05;5.43;;;;;;;19.19;64.47;93493.19;5053505;28;20043;-47
2022/07/30 02:49:11;;;;;;;5.80;5.20;;;;;;;19.17;64.20;93490.28;5071865;28;20137;-47
2022/07/30 02:51:36;;;;;;;8.75;5.18;;;;;;;19.18;64.26;93491.75;5077271;28;20651;-47
2022/07/30 02:54:03;;;;;;;5.63;5.03;;;;;;;19.09;64.48;93480.66;5053691;28;20048;-47
2022/07/30 02:56:29;;;;;;;6.03;5.10;;;;;;;19.14;64.19;93487.97;5068740;28;20024;-45
2022/07/30 02:58:56;;;;;;;7.75;5.85;;;;;;;19.05;64.75;93497.19;5071724;28;20030;-45
2022/07/30 03:01:22;;;;;;;8.95;5.65;;;;;;;18.93;64.96;93492.28;5071332;28;20090;-46
2022/07/30 03:03:48;;;;;;;6.50;5.85;;;;;;;18.90;65.20;93493.50;5071153;28;20028;-49
2022/07/30 03:06:14;;;;;;;6.90;5.10;;;;;;;18.79;65.32;93494.19;5071597;28;20425;-47
2022/07/30 03:08:42;;;;;;;8.88;5.40;;;;;;;18.84;65.49;93492.38;5055261;28;20036;-49
2022/07/30 03:11:12;;;;;;;6.77;5.67;;;;;;;18.61;66.23;93497.84;5048213;28;20025;-45
2022/07/30 03:13:38;;;;;;;8.18;5.63;;;;;;;18.76;65.57;93495.38;5071044;28;20024;-45
2022/07/30 03:16:06;;;;;;;11.82;10.93;;;;;;;18.56;66.49;93498.94;5071256;28;20066;-45
2022/07/30 03:18:33;;;;;;;6.90;6.00;;;;;;;18.44;67.23;93492.50;5052796;28;20109;-45
2022/07/30 03:20:59;;;;;;;5.75;5.22;;;;;;;18.33;67.14;93493.16;5071309;28;20070;-45
2022/07/30 03:23:26;;;;;;;8.77;5.70;;;;;;;18.38;67.05;93492.13;5070200;28;20508;-45
2022/07/30 03:25:54;;;;;;;5.22;4.72;;;;;;;18.50;66.60;93492.94;5053237;28;20028;-45
2022/07/30 03:28:21;;;;;;;6.32;5.68;;;;;;;18.41;67.00;93496.53;5060211;28;20051;-46
2022/07/30 03:30:47;;;;;;;8.18;5.93;;;;;;;18.44;67.05;93492.50;5070008;28;20123;-45
2022/07/30 03:33:12;;;;;;;6.05;5.43;;;;;;;18.36;67.19;93492.72;5070342;28;20060;-43
2022/07/30 03:35:40;;;;;;;7.43;5.57;;;;;;;18.40;67.34;93500.63;5063636;28;20093;-46
2022/07/30 03:38:06;;;;;;;9.60;7.47;;;;;;;18.34;66.84;93503.03;5053555;28;20433;-45
2022/07/30 03:40:32;;;;;;;8.77;7.13;;;;;;;18.45;66.83;93494.72;5053442;28;20039;-46
2022/07/30 03:42:57;;;;;;;8.18;6.68;;;;;;;18.35;67.28;93496.84;5053411;28;20028;-47
2022/07/30 03:45:23;;;;;;;12.75;8.68;;;;;;;18.45;67.08;93502.41;5054611;28;20098;-48
2022/07/30 03:47:49;;;;;;;9.93;7.85;;;;;;;18.33;67.54;93495.97;5052994;28;20560;-46
2022/07/30 03:50:15;;;;;;;11.20;8.93;;;;;;;18.24;67.83;93494.69;5053004;28;20028;-47
2022/07/30 03:52:41;;;;;;;13.50;9.23;;;;;;;18.29;67.27;93506.88;5070657;28;20024;-46
2022/07/30 03:55:09;;;;;;;11.98;9.68;;;;;;;18.44;67.05;93504.47;5052781;28;20057;-46
2022/07/30 03:57:35;;;;;;;8.25;6.28;;;;;;;18.40;67.09;93503.44;5070663;28;20486;-45
2022/07/30 04:00:05;;;;;;;6.40;5.53;;;;;;;18.23;67.45;93501.63;5053056;28;20058;-47
2022/07/30 04:02:30;;;;;;;7.82;7.03;;;;;;;18.30;67.94;93511.88;5069019;28;20060;-46
2022/07/30 04:04:56;;;;;;;6.80;6.10;;;;;;;18.49;67.05;93505.47;5069941;28;20059;-47
2022/07/30 04:07:21;;;;;;;11.55;7.57;;;;;;;18.43;67.51;93508.53;5070508;28;20387;-46
2022/07/30 04:37:45;;;;;;;7.40;6.65;;;;;;;19.71;64.02;93511.84;5097442;27;21258;-42
2022/07/30 04:40:10;;;;;;;10.10;7.07;;;;;;;19.57;64.58;93506.84;5098774;27;20016;-42
2022/07/30 04:42:36;;;;;;;6.97;6.28;;;;;;;19.58;65.10;93510.34;5098255;28;20076;-48
2022/07/30 04:45:01;;;;;;;9.45;5.85;;;;;;;19.54;65.24;93504.50;5093611;28;20106;-44
2022/07/30 04:47:27;;;;;;;5.93;5.32;;;;;;;19.52;65.59;93504.38;5107709;28;20480;-47
2022/07/30 04:49:52;;;;;;;8.98;6.35;;;;;;;19.48;66.27;93501.34;5106072;28;20023;-46
2022/07/30 04:52:18;;;;;;;8.35;7.22;;;;;;;19.39;66.64;93497.31;5107732;28;20028;-45
2022/07/30 04:54:57;;;;;;;14.20;7.90;;;;;;;19.41;66.74;93499.47;5107369;28;20412;-45
2022/07/30 04:57:23;;;;;;;10.68;7.53;;;;;;;19.37;66.47;93502.78;5092421;28;20028;-46
2022/07/30 04:59:49;;;;;;;8.93;7.00;;;;;;;19.36;66.73;93497.78;5087163;28;20107;-47
2022/07/30 05:02:15;;;;;;;8.10;6.75;;;;;;;19.51;66.75;93492.44;5085646;28;20527;-46
2022/07/30 05:04:40;;;;;;;8.98;6.85;;;;;;;19.55;66.68;93498.31;5087097;28;20028;-47
2022/07/30 05:07:07;;;;;;;5.63;5.03;;;;;;;19.71;65.33;93500.63;5087708;28;20507;-47
2022/07/30 05:09:33;;;;;;;7.50;6.47;;;;;;;19.73;65.14;93503.56;5085774;28;20112;-46
2022/07/30 05:11:59;;;;;;;8.77;5.90;;;;;;;19.82;65.08;93505.50;5085823;28;20063;-47
2022/07/30 05:14:25;;;;;;;6.95;5.38;;;;;;;19.89;64.66;93504.53;5086869;28;20409;-46
2022/07/30 05:16:51;;;;;;;10.10;6.93;;;;;;;19.94;65.22;93509.78;5086872;28;20020;-46
2022/07/30 05:19:17;;;;;;;11.52;7.70;;;;;;;20.00;64.33;93515.00;5094063;28;20056;-48
2022/07/30 05:21:43;;;;;;;12.50;8.05;;;;;;;20.00;64.81;93501.00;5101790;28;20027;-42
2022/07/30 05:24:09;;;;;;;10.85;7.28;;;;;;;20.14;64.52;93516.59;5083531;28;20025;-43
2022/07/30 05:26:34;;;;;;;7.35;6.50;;;;;;;20.26;63.96;93517.34;5072943;28;20525;-44
2022/07/30 05:29:00;;;;;;;9.65;5.40;;;;;;;20.35;62.55;93515.75;5073190;28;20013;-45
2022/07/30 05:31:25;;;;;;;8.02;5.30;;;;;;;20.36;62.76;93509.53;5072717;28;20485;-45
2022/07/30 05:33:51;;;;;;;9.68;5.70;;;;;;;20.48;62.82;93509.50;5073096;28;20028;-48
2022/07/30 05:36:20;;;;;;;9.50;5.90;;;;;;;20.60;63.04;93506.66;5072684;28;20547;-47
2022/07/30 05:38:46;;;;;;;10.82;6.22;;;;;;;20.75;63.46;93503.31;5072734;28;20063;-45
2022/07/30 05:41:11;;;;;;;10.88;6.15;;;;;;;20.89;62.77;93506.94;5072673;28;20024;-46
2022/07/30 05:43:37;;;;;;;15.52;6.45;;;;;;;20.99;62.05;93511.06;5072589;28;20027;-45
2022/07/30 05:46:02;;;;;;;11.63;6.45;;;;;;;21.10;62.60;93504.69;5072581;28;20097;-46
2022/07/30 05:48:30;;;;;;;9.73;6.95;;;;;;;21.23;62.96;93508.16;5081598;28;20024;-44
2022/07/30 05:50:55;;;;;;;11.10;7.30;;;;;;;21.29;61.73;93511.34;5072672;28;20099;-46
2022/07/30 05:53:21;;;;;;;7.88;6.32;;;;;;;;;;5072468;28;20502;-45
2022/07/30 05:55:46;;;;;;;6.53;5.82;;;;;;;21.46;61.43;93508.78;5072416;28;20512;-50
2022/07/30 05:58:12;;;;;;;7.93;5.85;;;;;;;21.54;59.99;93505.69;5072617;28;20055;-45
2022/07/30 06:00:37;;;;;;;7.70;5.97;;;;;;;21.54;60.52;93506.41;5073634;28;20021;-47
2022/07/30 06:03:03;;;;;;;10.82;5.85;;;;;;;21.71;59.07;93500.31;5072245;28;20024;-48
2022/07/30 06:05:29;;;;;;;7.82;5.50;;;;;;;21.81;57.92;93495.22;5072312;28;20100;-45
2022/07/30 06:07:55;;;;;;;6.97;5.78;;;;;;;21.85;58.21;93495.47;5071998;28;20113;-48
2022/07/30 06:10:20;;;;;;;7.50;5.78;;;;;;;21.81;58.36;93491.69;5072269;28;20071;-45
2022/07/30 06:12:46;;;;;;;5.82;5.20;;;;;;;21.91;57.87;93497.88;5071985;28;20051;-43
2022/07/30 06:15:11;;;;;;;6.35;4.20;;;;;;;22.02;56.06;93502.69;5072258;28;20063;-45
2022/07/30 06:17:44;;;;;;;6.18;5.18;;;;;;;22.08;57.62;93496.66;5071984;28;20029;-45
2022/07/30 06:20:11;;;;;;;5.13;4.25;;;;;;;22.10;57.12;93497.47;5086495;28;20027;-48
2022/07/30 06:22:37;;;;;;;13.35;5.43;;;;;;;22.20;57.29;93500.81;5091977;28;20024;-45
2022/07/30 06:25:02;;;;;;;10.60;4.60;;;;;;;22.37;56.35;93500.28;5090961;28;20035;-51
2022/07/30 06:27:28;;;;;;;4.68;4.10;;;;;;;22.36;55.61;93498.09;5085461;28;20024;-45
2022/07/30 06:29:53;;;;;;;5.72;4.18;;;;;;;22.45;55.67;93495.09;5081509;28;20020;-46
2022/07/30 06:32:19;;;;;;;5.22;4.40;;;;;;;22.70;56.32;93502.69;5080331;28;20112;-45
2022/07/30 06:34:45;;;;;;;6.72;4.30;;;;;;;22.81;54.71;93495.47;5079214;28;20059;-44
2022/07/30 06:37:10;;;;;;;8.63;4.15;;;;;;;22.93;54.66;93487.63;5074899;28;20075;-45
2022/07/30 06:39:36;;;;;;;5.55;3.97;;;;;;;23.08;53.84;93492.59;5082257;28;20029;-48
2022/07/30 06:42:02;;;;;;;6.45;3.90;;;;;;;23.11;53.59;93486.41;5079559;28;20155;-51
2022/07/30 06:44:27;;;;;;;5.72;3.88;;;;;;;23.10;54.01;93479.34;5079587;28;20028;-48
2022/07/30 06:46:53;;;;;;;4.35;3.95;;;;;;;23.23;53.19;93483.47;5074085;28;20161;-44
2022/07/30 06:49:18;;;;;;;7.55;3.95;;;;;;;23.28;54.41;93485.81;5073046;28;20035;-47
2022/07/30 06:51:44;;;;;;;5.65;4.35;;;;;;;23.28;53.43;93480.19;5071473;28;20016;-44
2022/07/30 06:54:10;;;;;;;4.07;3.53;;;;;;;23.31;53.65;93478.94;5071593;28;20056;-46
2022/07/30 06:56:36;;;;;;;4.35;3.95;;;;;;;23.38;51.66;93468.72;5074450;28;20415;-45
2022/07/30 06:59:01;;;;;;;4.53;3.60;;;;;;;23.63;52.29;93471.28;5082144;28;20032;-47
2022/07/30 07:01:27;;;;;;;7.07;4.25;;;;;;;23.63;53.49;93476.91;5082153;28;20024;-49
2022/07/30 07:03:53;;;;;;;4.85;3.47;;;;;;;23.83;51.14;93471.47;5091557;28;20030;-45
2022/07/30 07:06:18;;;;;;;5.00;3.88;;;;;;;23.87;51.42;93474.47;5090905;28;20024;-51
2022/07/30 07:08:44;;;;;;;4.28;3.88;;;;;;;23.86;51.43;93470.94;5090998;28;20024;-49
2022/07/30 07:11:09;;;;;;;4.50;4.05;;;;;;;23.82;52.64;93476.38;5091356;28;20039;-47
2022/07/30 07:13:35;;;;;;;10.25;4.22;;;;;;;23.96;52.67;93477.03;5090592;28;20040;-46
2022/07/30 07:16:00;;;;;;;6.57;4.15;;;;;;;24.11;52.35;93486.88;5090127;28;20580;-52
2022/07/30 07:18:26;;;;;;;4.40;3.65;;;;;;;24.27;50.43;93489.69;5089150;28;20485;-52
2022/07/30 07:20:51;;;;;;;3.97;3.40;;;;;;;24.08;50.44;93457.84;5069922;28;20481;-54
2022/07/30 07:23:17;;;;;;;6.82;3.53;;;;;;;24.26;50.63;93493.88;5069624;28;20432;-59
2022/07/30 07:25:42;;;;;;;5.00;3.42;;;;;;;24.35;50.41;93479.47;5069723;28;20035;-55
2022/07/30 07:28:08;;;;;;;4.07;3.55;;;;;;;24.47;49.24;93488.47;5069378;28;20750;-49
2022/07/30 07:30:33;;;;;;;4.32;3.75;;;;;;;24.58;48.81;93490.34;5069647;28;20555;-50
2022/07/30 07:32:59;;;;;;;6.30;4.38;;;;;;;24.82;48.80;93499.16;5069277;28;20021;-53
2022/07/30 07:35:24;;;;;;;5.45;4.00;;;;;;;25.10;47.59;93499.63;5069231;28;20078;-48
2022/07/30 07:37:50;;;;;;;4.32;3.75;;;;;;;25.63;46.61;93491.88;5069182;28;20326;-49
2022/07/30 07:40:15;;;;;;;5.22;3.38;;;;;;;26.00;44.07;93457.22;5069102;28;20027;-52
2022/07/30 07:42:41;;;;;;;4.15;3.70;;;;;;;26.98;41.87;93489.06;5069399;28;20134;-47
2022/07/30 07:45:07;;;;;;;3.92;3.53;;;;;;;27.59;41.66;93494.63;5069275;28;20032;-46
2022/07/30 07:47:52;;;;;;;3.67;3.38;;;;;;;28.32;38.66;93491.91;5069313;28;20037;-52
2022/07/30 07:50:18;;;;;;;3.50;3.20;;;;;;;28.97;36.87;93468.84;5068670;28;20032;-46
2022/07/30 07:52:44;;;;;;;3.72;3.38;;;;;;;29.46;34.29;93476.50;5068984;28;20103;-51
2022/07/30 07:55:10;;;;;;;3.67;3.33;;;;;;;29.98;33.72;93471.31;5068874;28;20550;-52
2022/07/30 07:57:42;;;;;;;3.53;3.22;;;;;;;30.60;32.78;93474.78;5069018;28;20071;-50
2022/07/30 08:00:10;;;;;;;4.43;4.10;;;;;;;31.08;30.11;93464.31;5068840;28;20464;-53
2022/07/30 08:02:36;;;;;;;5.13;4.17;;;;;;;30.99;29.32;93464.88;5069194;28;20161;-52
2022/07/30 08:05:04;;;;;;;5.50;3.45;;;;;;;31.09;30.07;93454.34;5068976;28;20662;-55
2022/07/30 08:07:29;;;;;;;4.37;3.53;;;;;;;31.33;29.11;93457.63;5069200;28;20440;-52
2022/07/30 08:09:55;;;;;;;3.80;3.50;;;;;;;31.72;28.92;93453.28;5079048;28;20465;-51
2022/07/30 08:12:20;;;;;;;4.10;3.78;;;;;;;32.22;26.90;93461.13;5089062;28;20046;-49
2022/07/30 08:14:46;;;;;;;4.28;3.10;;;;;;;32.11;27.51;93455.31;5088911;28;20031;-48
2022/07/30 08:17:11;;;;;;;4.78;3.55;;;;;;;32.32;26.33;93447.69;5089029;28;20031;-53
2022/07/30 08:19:37;;;;;;;4.25;3.85;;;;;;;32.21;27.62;93451.13;5088837;28;20030;-49
2022/07/30 08:22:02;;;;;;;7.00;3.50;;;;;;;33.16;27.07;93453.00;5089335;28;20032;-44
2022/07/30 08:24:28;;;;;;;3.60;3.30;;;;;;;34.37;25.50;93457.53;5088807;28;20507;-46
2022/07/30 08:26:53;;;;;;;4.90;3.58;;;;;;;34.35;25.19;93449.59;5089016;28;20031;-45
2022/07/30 08:29:19;;;;;;;3.78;3.47;;;;;;;35.13;25.35;93445.63;5088768;28;20035;-44
2022/07/30 08:31:44;;;;;;;4.85;4.15;;;;;;;35.25;23.81;93437.03;5088680;28;20028;-53
2022/07/30 08:34:10;;;;;;;3.80;3.50;;;;;;;35.16;23.87;93443.47;5089018;28;20036;-43
2022/07/30 08:36:35;;;;;;;4.47;3.35;;;;;;;34.83;23.80;93451.97;5087392;28;20052;-42
2022/07/30 08:39:01;;;;;;;3.47;3.17;;;;;;;34.91;23.88;93457.72;5088935;28;20043;-52
2022/07/30 08:41:27;;;;;;;4.80;3.38;;;;;;;35.20;23.63;93440.59;5088041;28;20115;-46
2022/07/30 08:43:54;;;;;;;4.40;3.60;;;;;;;36.02;23.06;93448.59;5068817;28;20058;-43
2022/07/30 08:46:22;;;;;;;4.30;3.92;;;;;;;36.76;23.15;93436.84;5084788;28;20043;-44
2022/07/30 08:48:50;;;;;;;3.60;3.08;;;;;;;36.81;20.14;93443.31;5078010;28;20045;-52
2022/07/30 08:51:16;;;;;;;3.55;3.25;;;;;;;36.24;22.17;93451.41;5097008;28;20046;-51
2022/07/30 08:53:42;;;;;;;3.53;3.13;;;;;;;36.41;21.45;93433.38;5089366;28;20060;-53
2022/07/30 08:56:08;;;;;;;4.25;3.58;;;;;;;36.22;21.99;93437.03;5088559;28;20056;-51
2022/07/30 08:58:34;;;;;;;4.20;3.90;;;;;;;36.43;22.86;93433.38;5090734;28;20088;-44
2022/07/30 09:01:00;;;;;;;3.60;2.97;;;;;;;37.65;22.11;93434.19;5090306;28;20071;-48
2022/07/30 09:03:25;;;;;;;3.70;3.40;;;;;;;37.86;21.59;93446.28;5085297;28;20036;-53
2022/07/30 09:05:52;;;;;;;4.90;3.15;;;;;;;37.90;21.02;93426.78;5091232;28;20417;-51
2022/07/30 09:08:17;;;;;;;3.38;3.17;;;;;;;38.51;21.22;93429.78;5092221;28;20032;-55
2022/07/30 09:10:44;;;;;;;12.63;3.70;;;;;;;38.62;20.42;93425.31;5074183;28;20437;-49
2022/07/30 09:13:26;;;;;;;4.55;2.92;;;;;;;38.09;21.95;93435.25;5070410;28;20166;-45
2022/07/30 09:15:53;;;;;;;3.13;2.92;;;;;;;37.98;20.53;93420.25;5082324;28;20484;-48
2022/07/30 09:18:43;;;;;;;6.50;3.15;;;;;;;37.04;21.31;93418.75;5079821;28;20035;-44
2022/07/30 09:21:23;;;;;;;3.47;3.22;;;;;;;36.90;20.69;93408.06;5091531;28;20024;-48
2022/07/30 09:24:00;;;;;;;4.43;4.03;;;;;;;36.90;20.38;93410.22;5079225;28;20074;-45
2022/07/30 09:26:28;;;;;;;3.63;3.33;;;;;;;37.21;21.85;93414.31;5088939;28;20034;-45
2022/07/30 09:28:54;;;;;;;3.88;3.45;;;;;;;36.61;20.33;93408.88;5089894;28;20028;-43
2022/07/30 09:31:20;;;;;;;3.67;3.38;;;;;;;36.74;21.67;93408.09;5098199;28;20070;-46
2022/07/30 09:33:47;;;;;;;3.25;3.00;;;;;;;37.57;20.45;93401.84;5090698;28;20667;-56
2022/07/30 09:36:15;;;;;;;3.55;3.25;;;;;;;37.60;20.80;93397.50;5089620;28;20147;-46
2022/07/30 09:38:50;;;;;;;3.88;3.30;;;;;;;37.58;20.87;93409.03;5091715;28;20115;-51
2022/07/30 09:41:31;;;;;;;3.42;3.22;;;;;;;37.49;21.48;93396.84;5091580;28;20028;-49
2022/07/30 09:43:56;;;;;;;4.13;3.83;;;;;;;37.17;21.43;93397.06;5090425;28;20113;-44
2022/07/30 09:46:22;;;;;;;5.25;3.33;;;;;;;37.87;19.79;93402.31;5089239;28;20028;-48
2022/07/30 09:48:48;;;;;;;3.47;3.17;;;;;;;37.72;19.76;93400.28;5090240;28;20404;-53
2022/07/30 09:51:13;;;;;;;3.85;3.55;;;;;;;37.81;20.13;93407.44;5089730;28;20084;-55
2022/07/30 09:53:57;;;;;;;3.50;2.88;;;;;;;37.67;20.93;93393.09;5088273;28;20035;-47
2022/07/30 09:56:25;;;;;;;4.00;3.60;;;;;;;37.09;20.96;93402.88;5091705;28;20089;-48
2022/07/30 09:58:51;;;;;;;8.27;3.47;;;;;;;37.31;20.69;93390.50;5102839;28;20512;-50
2022/07/30 10:01:16;;;;;;;4.10;3.80;;;;;;;37.31;21.03;93394.09;5111439;28;20028;-46
2022/07/30 10:03:42;;;;;;;4.57;3.42;;;;;;;37.09;22.52;93391.38;5110716;28;20032;-46
2022/07/30 10:06:08;;;;;;;3.80;3.42;;;;;;;37.29;21.88;93402.03;5107416;28;20544;-49
2022/07/30 10:08:49;;;;;;;5.03;3.42;;;;;;;37.34;22.48;93389.03;5090223;28;20133;-50
2022/07/30 10:11:21;;;;;;;3.90;3.60;;;;;;;37.32;21.84;93383.31;5086288;28;20040;-45
2022/07/30 10:13:48;;;;;;;4.43;3.47;;;;;;;37.51;21.49;93378.84;5088991;28;20417;-49
2022/07/30 10:16:14;;;;;;;3.80;3.53;;;;;;;37.33;20.52;93373.94;5089110;28;20666;-44
2022/07/30 10:18:41;;;;;;;3.85;3.58;;;;;;;37.61;20.83;93384.53;5089631;28;20031;-49
2022/07/30 10:21:07;;;;;;;10.45;3.78;;;;;;;37.66;20.36;93378.00;5087775;28;20020;-45
2022/07/30 10:23:34;;;;;;;2.95;2.75;;;;;;;38.06;20.65;93379.06;5080568;28;20421;-46
2022/07/30 10:26:00;;;;;;;3.50;3.22;;;;;;;37.71;20.23;93370.72;5085461;28;20478;-45
2022/07/30 10:28:27;;;;;;;3.88;3.58;;;;;;;37.42;21.25;93374.59;5084986;28;20613;-48
2022/07/30 10:30:54;;;;;;;4.10;3.72;;;;;;;37.62;21.45;93371.56;5090284;28;20059;-44
2022/07/30 10:33:28;;;;;;;6.90;3.83;;;;;;;37.35;21.08;93373.94;5090894;28;20040;-45
2022/07/30 10:35:54;;;;;;;5.95;4.47;;;;;;;37.18;21.87;93370.44;5090620;28;20058;-48
2022/07/30 10:38:23;;;;;;;4.03;3.83;;;;;;;37.37;20.99;93367.44;5090455;28;20042;-48
2022/07/30 10:41:22;;;;;;;4.38;4.00;;;;;;;37.45;21.60;93355.88;5090828;28;20429;-47
2022/07/30 10:43:58;;;;;;;4.38;3.97;;;;;;;38.00;21.65;93359.66;5090647;28;20420;-46
2022/07/30 10:46:33;;;;;;;4.55;4.15;;;;;;;37.68;20.83;93354.22;5084157;28;20023;-42
2022/07/30 10:49:13;;;;;;;4.15;3.85;;;;;;;37.77;20.42;93341.16;5088025;28;20123;-44
2022/07/30 10:51:50;;;;;;;4.15;3.75;;;;;;;37.73;20.54;93336.13;5089897;28;20034;-43
2022/07/30 10:54:41;;;;;;;4.10;3.70;;;;;;;37.99;20.67;93329.41;5090167;28;20032;-48
2022/07/30 10:57:07;;;;;;;3.33;3.13;;;;;;;38.46;19.82;93332.47;5089841;28;20028;-58
2022/07/30 10:59:50;;;;;;;3.63;3.22;;;;;;;38.70;20.68;93329.31;5090153;28;20034;-38
2022/07/30 11:02:17;;;;;;;7.60;3.53;;;;;;;38.84;20.90;93328.38;5089544;28;20056;-40
2022/07/30 11:04:43;;;;;;;5.38;3.83;;;;;;;38.72;21.09;93328.56;5088786;28;20024;-45
2022/07/30 11:07:21;;;;;;;136.52;20.70;;;;;;;38.87;21.57;93329.78;5090251;28;20043;-59
2022/07/30 11:09:47;;;;;;;8.10;4.30;;;;;;;37.95;19.85;93317.91;5090941;28;20039;-48
2022/07/30 11:12:13;;;;;;;4.50;4.00;;;;;;;38.26;20.79;93321.19;5077890;28;20040;-45
2022/07/30 11:14:45;;;;;;;3.78;3.47;;;;;;;36.98;21.38;93320.91;5069413;28;20029;-44
2022/07/30 11:17:11;;;;;;;4.38;4.00;;;;;;;37.15;21.53;93310.72;5086877;28;20107;-48
2022/07/30 11:20:02;;;;;;;4.40;3.85;;;;;;;37.54;21.94;93314.72;5078126;28;20097;-45
2022/07/30 11:22:39;;;;;;;4.40;4.00;;;;;;;38.02;21.05;93301.25;5084380;28;20035;-47
2022/07/30 11:25:09;;;;;;;3.78;3.55;;;;;;;37.39;20.81;93304.78;5089655;28;20028;-49
2022/07/30 11:27:44;;;;;;;6.43;3.78;;;;;;;37.02;22.36;93295.69;5084102;28;20032;-50
2022/07/30 11:30:15;;;;;;;4.95;4.47;;;;;;;36.11;22.26;93306.25;5084750;28;20477;-53
2022/07/30 11:32:51;;;;;;;6.00;3.42;;;;;;;35.71;23.51;93304.91;5089130;28;20054;-49
2022/07/30 11:35:24;;;;;;;4.28;3.88;;;;;;;35.40;23.51;93297.78;5093357;28;20042;-46
2022/07/30 11:38:14;;;;;;;3.85;3.45;;;;;;;35.75;25.17;93302.06;5083865;28;20113;-43
2022/07/30 11:41:05;;;;;;;4.25;3.95;;;;;;;35.76;22.82;93288.41;5082081;28;20040;-50
2022/07/30 11:43:34;;;;;;;4.35;3.67;;;;;;;35.45;22.35;93267.66;5085457;28;20684;-58
2022/07/30 11:46:21;;;;;;;4.50;4.18;;;;;;;35.43;24.12;93281.97;5096289;28;20412;-54
2022/07/30 11:49:03;;;;;;;4.38;3.92;;;;;;;35.71;23.21;93269.75;5085150;28;20063;-54
2022/07/30 11:51:41;;;;;;;4.95;3.70;;;;;;;35.48;24.03;93263.34;5083018;28;20027;-56
2022/07/30 11:54:07;;;;;;;;;;;;;;;35.22;24.82;93260.50;5087168;28;20496;-44
2022/07/30 11:56:33;;;;;;;4.20;3.83;;;;;;;34.70;24.30;93261.19;5073407;28;19951;-44
2022/07/30 11:59:06;;;;;;;4.57;3.45;;;;;;;34.44;25.01;93269.03;5085797;28;20121;-50
2022/07/30 12:01:32;;;;;;;5.85;3.75;;;;;;;34.59;26.15;93267.66;5083299;28;20023;-52
2022/07/30 12:04:01;;;;;;;4.35;3.70;;;;;;;34.43;24.92;93261.88;5085586;28;20099;-45
2022/07/30 12:06:28;;;;;;;5.38;3.70;;;;;;;34.33;25.29;93259.69;5081756;28;20119;-53
2022/07/30 12:08:54;;;;;;;4.32;3.55;;;;;;;34.44;26.28;93255.41;5068713;28;20036;-48